Time;durP1;ratioP1;P1;durP2;ratioP2;P2;SDS_P1;SDS_P2;PMS_P1;PMS_P2;Temp;Humidity;BMP_temperature;BMP_pressure;BME280_temperature;BME280_humidity;BME280_pressure;Samples;Min_cycle;Max_cycle;Signal;HPM_P1;HPM_P2
2023/02/21 02:14:49;;;;;;;0.30;0.30;;;;;;;7.61;100.00;99641.95;5066943;57;1137052;-67
2023/02/21 02:20:32;;;;;;;0.50;0.30;;;;;;;7.52;100.00;99650.06;5067324;56;1136911;-72
2023/02/21 02:26:01;;;;;;;0.87;0.20;;;;;;;7.49;100.00;99661.30;5067571;56;1137038;-70
2023/02/21 02:31:26;;;;;;;0.30;0.27;;;;;;;7.46;100.00;99665.52;5086646;56;1136849;-72
2023/02/21 02:36:46;;;;;;;1.30;0.23;;;;;;;7.49;100.00;99668.72;5047980;56;1137037;-73
2023/02/21 02:41:59;;;;;;;0.20;0.20;;;;;;;7.53;100.00;99673.27;5008949;57;1136916;-72
2023/02/21 02:47:13;;;;;;;0.17;0.17;;;;;;;7.58;100.00;99668.50;4983938;57;1136729;-74
2023/02/21 02:52:20;;;;;;;0.83;0.20;;;;;;;7.65;100.00;99676.25;5012479;57;1136974;-72
2023/02/21 02:57:27;;;;;;;0.77;0.20;;;;;;;7.66;100.00;99662.13;4951144;58;1142071;-73
2023/02/21 03:02:43;;;;;;;2.08;0.10;;;;;;;7.70;100.00;99673.63;4992745;57;1136979;-72
2023/02/21 03:08:34;;;;;;;1.00;0.23;;;;;;;7.75;100.00;99698.27;4988581;57;1136887;-72
2023/02/21 03:14:11;;;;;;;0.93;0.45;;;;;;;7.77;100.00;99693.73;4992197;57;1136796;-71
2023/02/21 03:19:27;;;;;;;0.20;0.20;;;;;;;7.77;100.00;99720.05;5009551;57;1136678;-71
2023/02/21 03:24:36;;;;;;;0.43;0.20;;;;;;;7.71;100.00;99721.36;4993177;57;1136781;-72
2023/02/21 03:29:42;;;;;;;1.40;0.20;;;;;;;7.64;100.00;99720.15;4961230;57;1137118;-73
2023/02/21 03:34:48;;;;;;;1.53;0.30;;;;;;;7.58;100.00;99737.75;4948081;57;1136824;-74
2023/02/21 03:39:55;;;;;;;2.90;0.50;;;;;;;7.50;100.00;99732.70;4969182;57;1136979;-68
2023/02/21 03:45:02;;;;;;;4.03;0.53;;;;;;;7.40;100.00;99728.16;5049720;57;1136798;-75
2023/02/21 03:50:09;;;;;;;0.60;0.60;;;;;;;7.32;100.00;99719.20;5165487;56;1136803;-74
2023/02/21 03:55:19;;;;;;;1.37;0.53;;;;;;;7.26;100.00;99737.59;5188678;56;1136897;-68
2023/02/21 04:00:25;;;;;;;10.37;1.87;;;;;;;7.23;100.00;99737.82;5072811;57;1146330;-74
2023/02/21 04:10:44;;;;;;;1.00;0.40;;;;;;;7.21;100.00;99744.98;5197528;55;46218;-70
2023/02/21 04:15:51;;;;;;;2.98;0.70;;;;;;;7.09;100.00;99735.88;4999617;57;1130642;-69
2023/02/21 04:20:58;;;;;;;5.93;1.17;;;;;;;7.06;100.00;99727.73;4958703;57;1137014;-73
2023/02/21 04:26:04;;;;;;;5.33;2.10;;;;;;;7.01;100.00;99725.95;4994898;57;1137103;-68
2023/02/21 04:31:13;;;;;;;3.20;1.07;;;;;;;6.98;100.00;99733.59;5013080;57;1136882;-74
2023/02/21 04:36:19;;;;;;;4.00;0.87;;;;;;;6.98;100.00;99727.02;5055278;56;1136888;-70
2023/02/21 04:41:25;;;;;;;4.20;1.00;;;;;;;6.98;100.00;99723.55;4990572;57;1137977;-72
2023/02/21 04:46:31;;;;;;;3.65;0.85;;;;;;;6.97;100.00;99727.13;4992255;57;1136932;-69
2023/02/21 04:51:36;;;;;;;4.15;1.77;;;;;;;6.92;100.00;99745.88;4940043;57;1136806;-69
2023/02/21 04:56:43;;;;;;;3.60;0.60;;;;;;;6.93;100.00;99736.20;5010532;57;1158295;-72
2023/02/21 05:01:49;;;;;;;2.83;1.30;;;;;;;6.89;100.00;99750.52;5054129;56;1134742;-68
2023/02/21 05:06:54;;;;;;;9.03;1.87;;;;;;;6.88;100.00;99759.34;5060956;56;1134717;-68
2023/02/21 05:12:01;;;;;;;3.80;0.90;;;;;;;6.86;100.00;99771.31;4970931;57;1136781;-68
2023/02/21 05:17:08;;;;;;;7.20;1.20;;;;;;;6.89;100.00;99770.22;5004181;56;1136717;-70
2023/02/21 05:22:19;;;;;;;4.78;1.10;;;;;;;6.88;100.00;99771.17;5133002;56;1136934;-67
2023/02/21 05:27:21;;;;;;;8.13;1.60;;;;;;;6.82;100.00;99767.70;5058334;55;1136640;-69
2023/02/21 05:32:28;;;;;;;10.10;1.90;;;;;;;6.83;100.00;99783.36;5014855;55;1134560;-69
2023/02/21 05:37:35;;;;;;;4.50;2.07;;;;;;;6.84;100.00;99772.37;4998454;56;1139060;-71
2023/02/21 05:42:42;;;;;;;7.70;0.90;;;;;;;6.80;100.00;99786.22;5087398;56;1134828;-71
2023/02/21 05:47:48;;;;;;;10.50;1.23;;;;;;;6.77;100.00;99787.75;5037426;56;1134798;-67
2023/02/21 05:52:55;;;;;;;5.57;1.80;;;;;;;6.73;100.00;99789.39;5113425;56;1139010;-69
2023/02/21 05:58:02;;;;;;;11.73;2.30;;;;;;;6.70;100.00;99788.69;5031605;56;1134877;-70
2023/02/21 06:03:08;;;;;;;9.73;1.87;;;;;;;6.68;100.00;99793.69;5040248;55;1136898;-67
2023/02/21 06:08:14;;;;;;;5.93;2.13;;;;;;;6.66;100.00;99806.09;5118692;56;1134788;-70
2023/02/21 06:13:20;;;;;;;6.50;2.23;;;;;;;6.66;100.00;99831.89;5094440;55;1134643;-70
2023/02/21 06:18:26;;;;;;;13.30;1.90;;;;;;;6.61;100.00;99822.66;5071178;55;1134658;-71
2023/02/21 06:23:32;;;;;;;8.43;2.10;;;;;;;6.62;100.00;99832.22;5160591;55;1136903;-69
2023/02/21 06:28:38;;;;;;;6.27;2.03;;;;;;;6.63;100.00;99844.41;5106578;55;1134737;-71
2023/02/21 06:33:44;;;;;;;5.00;1.63;;;;;;;6.63;100.00;99841.31;5032268;55;1134652;-68
2023/02/21 06:38:53;;;;;;;3.55;1.30;;;;;;;6.62;100.00;99847.98;5047981;55;1134980;-66
2023/02/21 06:44:00;;;;;;;6.30;1.77;;;;;;;6.64;100.00;99853.97;5045899;55;1134771;-68
2023/02/21 06:49:06;;;;;;;10.10;3.87;;;;;;;6.63;100.00;99872.00;5075982;55;1134834;-66
2023/02/21 06:54:15;;;;;;;9.90;2.50;;;;;;;6.60;100.00;99875.68;5031654;55;1136711;-69
2023/02/21 06:59:22;;;;;;;13.10;2.20;;;;;;;6.66;100.00;99884.92;5079271;55;1134817;-72
2023/02/21 07:04:27;;;;;;;4.87;1.63;;;;;;;6.64;100.00;99894.22;5056383;55;1136903;-74
2023/02/21 07:09:33;;;;;;;13.22;2.30;;;;;;;6.65;100.00;99899.00;5098292;55;1134759;-73
2023/02/21 07:14:39;;;;;;;6.22;1.30;;;;;;;6.67;100.00;99915.03;5109457;55;1136955;-71
2023/02/21 07:19:45;;;;;;;6.75;1.75;;;;;;;6.65;100.00;99912.14;5114687;55;1134643;-71
2023/02/21 07:24:50;;;;;;;8.80;2.23;;;;;;;6.67;100.00;99926.02;5076287;55;1134686;-71
2023/02/21 07:29:56;;;;;;;10.43;1.62;;;;;;;6.67;100.00;99930.80;5088683;55;1134675;-67
2023/02/21 07:35:03;;;;;;;9.53;2.72;;;;;;;6.68;100.00;99932.48;5062209;55;1139057;-70
2023/02/21 07:40:09;;;;;;;13.32;2.72;;;;;;;6.68;100.00;99940.36;5046336;55;1134843;-64
2023/02/21 07:45:17;;;;;;;17.67;2.00;;;;;;;6.72;100.00;99949.35;5045962;55;1136833;-65
2023/02/21 07:50:22;;;;;;;14.47;3.30;;;;;;;6.72;100.00;99960.70;5106246;55;1136957;-68
2023/02/21 07:55:28;;;;;;;11.17;1.80;;;;;;;6.70;100.00;99970.00;5064306;55;1136935;-67
2023/02/21 08:00:34;;;;;;;15.07;3.27;;;;;;;6.72;100.00;99968.59;5080804;55;1136639;-69
2023/02/21 08:05:40;;;;;;;11.70;2.70;;;;;;;6.73;100.00;99978.13;5025937;56;1136780;-67
2023/02/21 08:10:47;;;;;;;16.00;4.33;;;;;;;6.73;100.00;99977.28;5059157;56;1136739;-65
2023/02/21 08:15:52;;;;;;;18.43;3.97;;;;;;;6.76;100.00;99992.37;5055543;55;1138962;-70
2023/02/21 08:20:58;;;;;;;16.47;4.07;;;;;;;6.74;100.00;100002.14;5135727;55;1136914;-67
2023/02/21 08:26:05;;;;;;;14.93;3.80;;;;;;;6.77;100.00;100005.88;5117984;55;1138794;-73
2023/02/21 08:31:11;;;;;;;22.80;4.37;;;;;;;6.75;100.00;100010.87;5104042;55;1138869;-71
2023/02/21 08:36:17;;;;;;;18.87;3.90;;;;;;;6.74;100.00;100012.66;5131873;55;1138905;-72
2023/02/21 08:41:24;;;;;;;17.67;4.90;;;;;;;6.77;100.00;100016.86;5194548;55;1138786;-73
2023/02/21 08:46:30;;;;;;;16.80;4.33;;;;;;;6.82;100.00;100026.12;5082531;55;1139144;-70
2023/02/21 08:51:39;;;;;;;13.05;3.25;;;;;;;6.86;100.00;100028.06;5106658;55;1138888;-72
2023/02/21 08:56:44;;;;;;;18.70;3.55;;;;;;;6.90;100.00;100036.08;5108837;55;1138799;-73
2023/02/21 09:01:50;;;;;;;20.47;2.67;;;;;;;6.91;100.00;100045.65;5127683;55;1138873;-69
2023/02/21 09:06:56;;;;;;;21.27;5.03;;;;;;;6.91;100.00;100047.80;5118296;55;1138876;-74
2023/02/21 09:12:02;;;;;;;23.93;4.33;;;;;;;6.92;100.00;100050.80;5171924;55;1138972;-74
2023/02/21 09:17:12;;;;;;;21.30;5.87;;;;;;;6.93;100.00;100052.95;5126145;55;1138836;-70
2023/02/21 09:22:18;;;;;;;23.83;3.60;;;;;;;6.94;100.00;100066.00;5115921;55;1138813;-75
2023/02/21 09:27:35;;;;;;;11.00;2.80;;;;;;;6.96;100.00;100071.16;5114314;55;1138831;-74
2023/02/21 09:32:31;;;;;;;15.27;3.40;;;;;;;6.95;100.00;100059.80;5123042;55;1145993;-73
2023/02/21 09:37:45;;;;;;;21.30;4.78;;;;;;;7.00;100.00;100075.26;5121067;55;1138771;-73
2023/02/21 09:42:54;;;;;;;15.20;3.10;;;;;;;7.01;100.00;100086.98;5108082;55;1138685;-72
2023/02/21 09:48:12;;;;;;;15.07;3.17;;;;;;;7.04;100.00;100087.22;5127934;55;1138755;-70
2023/02/21 09:53:26;;;;;;;13.50;4.43;;;;;;;7.03;100.00;100099.52;5144916;55;1138849;-73
2023/02/21 09:58:30;;;;;;;14.93;2.92;;;;;;;7.04;100.00;100095.11;5114310;55;1139047;-70
2023/02/21 10:04:05;;;;;;;15.75;3.27;;;;;;;7.06;100.00;100092.74;5121287;55;1138953;-69
2023/02/21 10:09:28;;;;;;;;;;;;;;;7.09;100.00;100102.69;5069956;55;1138951;-66
2023/02/21 10:15:12;;;;;;;16.33;5.23;;;;;;;7.11;100.00;100099.00;5148260;55;974185;-67
2023/02/21 10:20:51;;;;;;;20.90;6.22;;;;;;;7.16;100.00;100111.84;5118893;55;1136785;-67
2023/02/21 10:26:08;;;;;;;13.77;3.90;;;;;;;7.15;100.00;100117.58;5108411;55;1138826;-66
2023/02/21 10:31:22;;;;;;;17.20;3.10;;;;;;;7.18;100.00;100118.65;5095672;55;1138744;-68
2023/02/21 10:36:28;;;;;;;26.50;3.75;;;;;;;7.16;100.00;100126.30;5114177;55;1139238;-66
2023/02/21 10:41:38;;;;;;;14.63;3.17;;;;;;;7.16;100.00;100124.98;5102785;55;1138956;-69
2023/02/21 10:46:51;;;;;;;16.83;3.07;;;;;;;7.16;100.00;100142.08;5100946;55;1138996;-69
2023/02/21 10:52:21;;;;;;;19.47;3.07;;;;;;;7.17;100.00;100140.66;5096851;55;1139028;-67
2023/02/21 10:57:28;;;;;;;19.23;4.17;;;;;;;7.20;100.00;100144.38;5151839;55;1138836;-69
2023/02/21 11:02:39;;;;;;;7.73;2.37;;;;;;;7.21;100.00;100149.16;5182445;55;1138975;-69
2023/02/21 11:08:06;;;;;;;13.62;2.25;;;;;;;7.23;100.00;100140.69;5180900;55;1136828;-70
2023/02/21 11:13:19;;;;;;;17.57;3.13;;;;;;;7.23;100.00;100155.16;5097151;55;1138822;-68
2023/02/21 11:18:26;;;;;;;14.63;3.83;;;;;;;7.22;100.00;100153.47;5121936;55;1138788;-67
2023/02/21 11:23:33;;;;;;;25.37;4.93;;;;;;;7.32;100.00;100161.11;5058977;55;1141187;-69
2023/02/21 11:28:44;;;;;;;15.10;4.37;;;;;;;7.32;100.00;100161.11;5051110;56;1138832;-68
2023/02/21 11:34:00;;;;;;;16.20;3.47;;;;;;;7.40;100.00;100168.83;5054941;56;1139249;-67
2023/02/21 11:39:29;;;;;;;16.73;2.90;;;;;;;7.47;100.00;100171.88;5076958;56;1138866;-68
2023/02/21 11:44:38;;;;;;;15.03;3.20;;;;;;;7.43;100.00;100184.88;4872380;58;1138975;-68
2023/02/21 11:50:00;;;;;;;18.07;4.33;;;;;;;7.41;100.00;100186.30;4966451;57;1138803;-67
2023/02/21 11:55:16;;;;;;;21.77;4.00;;;;;;;7.39;100.00;100189.97;5039698;56;1138931;-66
2023/02/21 12:01:00;;;;;;;23.33;3.87;;;;;;;7.36;100.00;100192.34;5062130;56;1139010;-68
2023/02/21 12:06:17;;;;;;;22.00;3.97;;;;;;;7.35;100.00;100201.65;5055987;56;1140904;-69
2023/02/21 12:11:44;;;;;;;14.60;1.90;;;;;;;7.37;100.00;100192.70;5039820;56;1138898;-66
2023/02/21 12:17:26;;;;;;;20.60;2.72;;;;;;;7.39;100.00;100199.19;5101041;55;1138841;-69
2023/02/21 12:23:04;;;;;;;30.73;5.57;;;;;;;7.35;100.00;100205.59;4872981;58;1141374;-65
2023/02/21 12:28:43;;;;;;;27.63;5.17;;;;;;;7.30;100.00;100215.61;4872969;57;1138930;-68
2023/02/21 12:33:59;;;;;;;17.77;5.20;;;;;;;7.24;100.00;100221.28;4841484;58;1139014;-67
2023/02/21 12:39:12;;;;;;;27.33;5.87;;;;;;;7.19;100.00;100218.95;4849830;58;1141029;-66
2023/02/21 12:44:52;;;;;;;25.97;6.87;;;;;;;7.18;100.00;100219.09;4868632;57;1138908;-65
2023/02/21 12:50:08;;;;;;;40.57;8.73;;;;;;;7.22;100.00;100227.12;4717069;58;1141075;-65
2023/02/21 12:55:24;;;;;;;25.77;4.07;;;;;;;7.29;100.00;100231.88;4729874;59;1139031;-66
2023/02/21 13:00:48;;;;;;;26.83;5.83;;;;;;;7.46;100.00;100212.30;4750721;59;1140762;-66
2023/02/21 13:06:04;;;;;;;23.60;4.22;;;;;;;7.55;100.00;100219.53;4794151;59;1139007;-66
2023/02/21 13:11:20;;;;;;;41.07;6.17;;;;;;;7.56;100.00;100215.11;4777526;59;1138917;-66
2023/02/21 13:16:26;;;;;;;38.30;10.53;;;;;;;7.51;100.00;100218.53;4845281;59;1139091;-66
2023/02/21 13:21:55;;;;;;;30.67;7.03;;;;;;;7.48;100.00;100232.77;4931765;58;1141272;-68
2023/02/21 13:27:27;;;;;;;24.30;4.80;;;;;;;7.50;100.00;100226.05;4939585;58;1141010;-65
2023/02/21 13:32:39;;;;;;;23.73;5.87;;;;;;;7.39;100.00;100224.17;4890550;58;1138900;-68
2023/02/21 13:37:47;;;;;;;37.53;8.73;;;;;;;7.37;100.00;100241.85;4961646;57;1140883;-68
2023/02/21 13:43:13;;;;;;;28.55;6.80;;;;;;;7.34;100.00;100246.84;4894427;58;1139127;-68
2023/02/21 13:48:23;;;;;;;16.30;5.07;;;;;;;7.45;100.00;100240.87;4961082;58;1140853;-68
2023/02/21 13:53:33;;;;;;;24.93;7.07;;;;;;;7.51;100.00;100253.58;4832244;59;1140918;-65
2023/02/21 13:58:48;;;;;;;37.50;11.73;;;;;;;7.54;100.00;100257.80;4887990;57;1139052;-65
2023/02/21 14:03:56;;;;;;;37.90;8.90;;;;;;;7.52;100.00;100255.27;4968798;57;1143102;-67
2023/02/21 14:09:15;;;;;;;29.97;11.27;;;;;;;7.45;100.00;100256.66;5040149;57;1141125;-65
2023/02/21 14:14:38;;;;;;;77.30;32.27;;;;;;;7.40;100.00;100267.48;4890125;58;1143149;-67
2023/02/21 14:19:51;;;;;;;43.97;16.00;;;;;;;7.37;100.00;100270.79;5009448;57;1143231;-68
2023/02/21 14:25:18;;;;;;;49.73;16.67;;;;;;;7.36;100.00;100271.27;4971174;57;1142962;-66
2023/02/21 14:30:32;;;;;;;61.53;19.37;;;;;;;7.34;100.00;100275.78;4930323;56;1143075;-68
2023/02/21 14:35:48;;;;;;;35.03;11.90;;;;;;;7.35;100.00;100278.78;4995093;56;1142965;-68
2023/02/21 14:41:13;;;;;;;49.88;22.85;;;;;;;7.31;100.00;100290.48;5024357;56;1143191;-69
2023/02/21 14:46:44;;;;;;;40.43;13.67;;;;;;;7.28;100.00;100296.42;5162034;55;1143087;-66
2023/02/21 14:52:28;;;;;;;36.10;11.30;;;;;;;7.24;100.00;100298.88;5065525;56;1143162;-66
2023/02/21 14:58:10;;;;;;;34.77;8.87;;;;;;;7.24;100.00;100308.08;5040496;55;1142977;-66
2023/02/21 15:03:27;;;;;;;34.10;9.40;;;;;;;7.24;100.00;100307.61;5118328;55;1140905;-68
2023/02/21 15:08:42;;;;;;;26.77;6.30;;;;;;;7.20;100.00;100312.70;5139067;55;1140867;-67
2023/02/21 15:13:47;;;;;;;35.43;10.40;;;;;;;7.17;100.00;100313.41;5119291;55;1140913;-67
2023/02/21 15:19:01;;;;;;;24.92;7.53;;;;;;;7.15;100.00;100324.02;5119100;55;1143096;-66
2023/02/21 15:24:16;;;;;;;29.57;8.40;;;;;;;7.13;100.00;100319.33;5139078;55;1140920;-68
2023/02/21 15:29:22;;;;;;;28.53;7.07;;;;;;;7.13;100.00;100325.06;5029111;55;1141025;-67
2023/02/21 15:34:33;;;;;;;37.90;7.13;;;;;;;7.07;100.00;100340.77;5138473;56;1140889;-66
2023/02/21 15:39:42;;;;;;;23.90;5.70;;;;;;;7.07;100.00;100346.02;4995944;56;1148449;-69
2023/02/21 15:44:56;;;;;;;27.10;7.25;;;;;;;7.05;100.00;100354.48;4982877;57;1145730;-69
2023/02/21 15:50:08;;;;;;;42.95;13.80;;;;;;;7.05;100.00;100352.69;4960757;56;1141071;-69
2023/02/21 15:55:21;;;;;;;24.82;6.75;;;;;;;7.02;100.00;100356.02;5061377;55;1141194;-67
2023/02/21 16:00:39;;;;;;;23.87;5.67;;;;;;;7.01;100.00;100358.27;5124847;55;1141066;-68
2023/02/21 16:05:45;;;;;;;23.80;6.80;;;;;;;7.02;100.00;100368.70;5118996;55;1138951;-67
2023/02/21 16:10:54;;;;;;;33.18;8.50;;;;;;;6.99;100.00;100370.67;5110730;55;1138776;-68
2023/02/21 16:16:01;;;;;;;37.83;8.10;;;;;;;6.99;100.00;100374.15;5136093;55;1140980;-66
2023/02/21 16:21:11;;;;;;;24.80;7.30;;;;;;;6.93;100.00;100371.91;5044389;55;1138887;-68
2023/02/21 16:26:25;;;;;;;21.87;5.60;;;;;;;6.91;100.00;100375.09;5082195;55;1139083;-68
2023/02/21 16:31:32;;;;;;;24.70;5.17;;;;;;;6.90;100.00;100383.92;5115809;55;1141009;-68
2023/02/21 16:36:39;;;;;;;24.63;4.93;;;;;;;6.80;100.00;100397.77;5054172;56;1139035;-67
2023/02/21 16:41:45;;;;;;;22.87;7.87;;;;;;;6.78;100.00;100399.18;5046439;56;1141005;-69
2023/02/21 16:46:52;;;;;;;39.17;10.80;;;;;;;6.74;100.00;100411.28;5060708;56;1143349;-66
2023/02/21 16:51:58;;;;;;;36.98;11.53;;;;;;;6.71;100.00;100412.35;5080348;56;1140957;-66
2023/02/21 16:57:04;;;;;;;32.20;9.83;;;;;;;6.70;100.00;100418.55;5171521;55;1143066;-69
2023/02/21 17:02:13;;;;;;;21.10;6.47;;;;;;;6.66;100.00;100420.98;5122138;56;1138950;-69
2023/02/21 17:07:23;;;;;;;16.63;5.57;;;;;;;6.61;100.00;100421.73;5100004;56;1138911;-68
2023/02/21 17:12:26;;;;;;;35.33;9.30;;;;;;;6.58;100.00;100428.48;5125009;55;1138984;-65
2023/02/21 17:17:32;;;;;;;34.63;8.93;;;;;;;6.52;100.00;100434.14;5204307;55;1138749;-66
2023/02/21 17:22:38;;;;;;;26.40;8.73;;;;;;;6.50;100.00;100439.48;5183676;54;1140874;-69
2023/02/21 17:27:44;;;;;;;35.58;11.68;;;;;;;6.45;100.00;100449.43;5185477;55;1138975;-65
2023/02/21 17:32:50;;;;;;;26.23;8.57;;;;;;;6.43;100.00;100450.45;5154661;55;1141750;-69
2023/02/21 17:38:00;;;;;;;37.78;9.18;;;;;;;6.43;100.00;100461.81;5084660;55;1138939;-66
2023/02/21 17:43:07;;;;;;;28.98;7.83;;;;;;;6.45;100.00;100465.66;5144307;55;1139020;-66
2023/02/21 17:48:11;;;;;;;40.53;12.20;;;;;;;6.46;100.00;100482.64;5112408;55;1138911;-66
2023/02/21 17:53:17;;;;;;;34.07;8.97;;;;;;;6.44;100.00;100480.58;5150152;55;1140893;-68
2023/02/21 17:58:24;;;;;;;26.70;9.87;;;;;;;6.43;100.00;100492.02;5094962;55;1138961;-75
2023/02/21 18:03:29;;;;;;;30.87;8.60;;;;;;;6.44;100.00;100495.49;5073423;57;1140963;-72
2023/02/21 18:08:35;;;;;;;46.67;13.03;;;;;;;6.42;100.00;100499.52;5013713;56;1138886;-72
2023/02/21 18:13:43;;;;;;;30.87;10.17;;;;;;;6.41;100.00;100495.70;5054847;56;1140936;-74
2023/02/21 18:18:50;;;;;;;31.72;7.22;;;;;;;6.41;100.00;100500.49;4943914;57;1143264;-72
2023/02/21 18:23:56;;;;;;;33.13;11.18;;;;;;;6.39;100.00;100506.77;5056815;56;1139058;-75
2023/02/21 18:29:02;;;;;;;64.70;33.92;;;;;;;6.37;100.00;100512.11;5036334;55;1140946;-70
2023/02/21 18:34:09;;;;;;;67.07;29.20;;;;;;;6.35;100.00;100512.20;5070158;56;1143150;-67
2023/02/21 18:39:19;;;;;;;33.20;16.30;;;;;;;6.33;100.00;100519.80;5151429;55;1141178;-73
2023/02/21 18:44:25;;;;;;;42.13;16.07;;;;;;;6.31;100.00;100528.23;5073608;56;1141191;-72
2023/02/21 18:49:37;;;;;;;72.60;28.17;;;;;;;6.32;100.00;100532.55;5181845;55;1143180;-76
2023/02/21 18:54:48;;;;;;;27.52;8.20;;;;;;;6.32;100.00;100531.23;5208309;55;1141334;-73
2023/02/21 18:59:54;;;;;;;44.23;14.37;;;;;;;6.30;100.00;100527.38;5146953;55;1138905;-71
2023/02/21 19:05:00;;;;;;;100.67;41.15;;;;;;;6.30;100.00;100537.05;5193290;55;1140926;-72
2023/02/21 19:10:06;;;;;;;30.37;9.73;;;;;;;6.27;100.00;100535.44;5223608;55;1143035;-69
2023/02/21 19:15:12;;;;;;;33.73;12.13;;;;;;;6.27;100.00;100535.44;5141614;55;1141023;-74
2023/02/21 19:20:18;;;;;;;75.93;29.73;;;;;;;6.27;100.00;100536.75;5135351;56;1140984;-72
2023/02/21 19:25:26;;;;;;;114.23;49.13;;;;;;;6.27;100.00;100553.83;5190483;56;1141050;-72
2023/02/21 19:30:35;;;;;;;171.00;86.07;;;;;;;6.29;100.00;100553.73;5135011;56;1145128;-75
2023/02/21 19:35:41;;;;;;;34.33;7.20;;;;;;;6.27;100.00;100563.02;5096674;55;1143009;-74
2023/02/21 19:40:48;;;;;;;69.65;29.05;;;;;;;6.27;100.00;100560.86;5066174;56;1138927;-75
2023/02/21 19:45:54;;;;;;;41.17;11.27;;;;;;;6.29;100.00;100576.06;5128307;56;1141001;-74
2023/02/21 19:50:59;;;;;;;36.00;12.10;;;;;;;6.28;100.00;100575.68;5112999;56;1150691;-69
2023/02/21 19:56:06;;;;;;;34.73;7.77;;;;;;;6.28;100.00;100580.47;5012280;57;1141035;-71
2023/02/21 20:01:11;;;;;;;24.60;4.53;;;;;;;6.25;100.00;100585.92;5071039;56;1139012;-72
2023/02/21 20:06:18;;;;;;;29.07;5.37;;;;;;;6.21;100.00;100583.56;5100916;56;1138851;-73
2023/02/21 20:11:24;;;;;;;36.93;6.97;;;;;;;6.20;100.00;100593.22;5110213;55;1141028;-70
2023/02/21 20:16:32;;;;;;;27.33;4.50;;;;;;;6.15;100.00;100594.41;5092572;55;1138881;-74
2023/02/21 20:21:38;;;;;;;34.13;6.40;;;;;;;6.13;100.00;100595.80;5106788;55;1138898;-70
2023/02/21 20:26:44;;;;;;;23.90;5.33;;;;;;;6.13;100.00;100606.31;5097611;55;1138856;-68
2023/02/21 20:31:50;;;;;;;27.60;6.97;;;;;;;6.09;100.00;100598.25;5120755;55;1138960;-71
2023/02/21 20:36:57;;;;;;;29.05;7.03;;;;;;;6.10;100.00;100602.58;5160360;55;1140978;-74
2023/02/21 20:42:07;;;;;;;24.20;7.00;;;;;;;6.06;100.00;100598.42;5107171;55;1138920;-75
2023/02/21 20:47:13;;;;;;;19.25;6.25;;;;;;;6.08;100.00;100603.13;5107785;55;1138772;-72
2023/02/21 20:52:19;;;;;;;28.13;4.70;;;;;;;6.07;100.00;100612.40;5076007;55;1139033;-70
2023/02/21 20:57:24;;;;;;;23.53;5.60;;;;;;;6.05;100.00;100607.70;4993676;56;1138974;-72
2023/02/21 21:02:30;;;;;;;26.03;5.83;;;;;;;6.05;100.00;100615.11;5048217;55;1141047;-70
2023/02/21 21:07:36;;;;;;;26.13;4.90;;;;;;;6.02;100.00;100613.97;5042984;57;1138831;-72
2023/02/21 21:12:44;;;;;;;28.97;6.13;;;;;;;6.05;100.00;100620.36;5061361;56;1138795;-72
2023/02/21 21:17:49;;;;;;;24.72;5.50;;;;;;;6.05;100.00;100622.14;5041614;56;1138896;-73
2023/02/21 21:22:55;;;;;;;23.10;5.07;;;;;;;5.98;100.00;100626.41;5019220;56;1139019;-71
2023/02/21 21:28:04;;;;;;;29.52;5.33;;;;;;;5.98;100.00;100631.66;5106330;56;1149765;-69
2023/02/21 21:33:10;;;;;;;34.43;6.70;;;;;;;5.95;100.00;100639.73;5106724;56;1138957;-72
2023/02/21 21:38:17;;;;;;;18.70;4.20;;;;;;;5.93;100.00;100642.91;5070422;56;1138795;-67
2023/02/21 21:43:27;;;;;;;18.98;5.25;;;;;;;5.89;100.00;100640.53;5091684;56;1140966;-72
2023/02/21 21:48:32;;;;;;;27.63;5.93;;;;;;;5.83;100.00;100649.56;5120758;55;1138981;-69
2023/02/21 21:53:38;;;;;;;19.80;4.93;;;;;;;5.78;100.00;100648.14;5140644;55;1138883;-73
2023/02/21 21:58:44;;;;;;;28.93;6.57;;;;;;;5.74;100.00;100643.98;5120538;56;1138770;-76
2023/02/21 22:03:51;;;;;;;22.60;4.05;;;;;;;5.70;100.00;100660.36;5120408;56;1138781;-68
2023/02/21 22:08:58;;;;;;;26.83;6.00;;;;;;;5.69;100.00;100659.12;5145792;56;1138847;-75
2023/02/21 22:14:04;;;;;;;25.82;6.17;;;;;;;5.64;100.00;100656.78;5106809;55;1139036;-72
2023/02/21 22:19:10;;;;;;;28.53;5.80;;;;;;;5.63;100.00;100661.18;5099728;55;1138932;-69
2023/02/21 22:24:19;;;;;;;31.17;6.40;;;;;;;5.64;100.00;100664.66;5104676;56;1139039;-74
2023/02/21 22:29:26;;;;;;;32.27;7.93;;;;;;;5.58;100.00;100667.13;5114948;56;1138884;-70
2023/02/21 22:34:31;;;;;;;19.77;4.73;;;;;;;5.56;100.00;100678.17;5118707;56;1138706;-67
2023/02/21 22:39:37;;;;;;;29.37;4.83;;;;;;;5.49;100.00;100679.45;5217000;55;1138926;-68
2023/02/21 22:44:45;;;;;;;20.43;4.90;;;;;;;5.41;100.00;100678.15;5177970;55;1138852;-69
2023/02/21 22:49:50;;;;;;;26.27;5.90;;;;;;;5.37;100.00;100681.39;5106289;56;1140967;-72
2023/02/21 22:54:56;;;;;;;29.30;7.03;;;;;;;5.32;100.00;100685.21;5126650;56;1139027;-72
2023/02/21 23:00:17;;;;;;;23.17;6.10;;;;;;;5.27;100.00;100685.45;5106655;56;1144975;-69
2023/02/21 23:05:09;;;;;;;32.27;6.90;;;;;;;5.20;100.00;100686.22;5099279;55;1141022;-68
2023/02/21 23:10:22;;;;;;;36.63;8.23;;;;;;;5.16;100.00;100695.66;5175286;55;1139005;-68
2023/02/21 23:15:28;;;;;;;26.27;6.03;;;;;;;5.14;100.00;100694.89;5189005;55;1138717;-69
2023/02/21 23:20:34;;;;;;;36.17;6.53;;;;;;;5.09;100.00;100704.76;5191109;55;1138791;-72
2023/02/21 23:25:40;;;;;;;51.97;15.03;;;;;;;5.10;100.00;100713.01;5149962;55;1140963;-69
2023/02/21 23:30:47;;;;;;;52.10;13.37;;;;;;;5.11;100.00;100714.24;5104898;55;1142952;-71
2023/02/21 23:35:55;;;;;;;37.55;8.40;;;;;;;5.14;100.00;100711.47;5105142;55;1141081;-72
2023/02/21 23:41:01;;;;;;;53.83;12.28;;;;;;;5.23;100.00;100721.92;5126863;56;1138812;-74
2023/02/21 23:46:08;;;;;;;42.85;8.35;;;;;;;5.30;100.00;100728.09;5117076;55;1140990;-72
2023/02/21 23:51:14;;;;;;;30.93;7.60;;;;;;;5.31;100.00;100728.95;5106805;55;1138781;-69
2023/02/21 23:56:20;;;;;;;37.97;9.40;;;;;;;5.29;100.00;100733.42;5126424;55;1138806;-72
